Time;durP1;ratioP1;P1;durP2;ratioP2;P2;SDS_P1;SDS_P2;PMS_P1;PMS_P2;Temp;Humidity;BMP_temperature;BMP_pressure;BME280_temperature;BME280_humidity;BME280_pressure;Samples;Min_cycle;Max_cycle;Signal;HPM_P1;HPM_P2
2023/08/23 00:01:03;;;;;;;6.95;2.42;;;18.90;99.90;;;;;;5012246;28;20048;-59
2023/08/23 00:03:48;;;;;;;5.38;2.30;;;18.90;99.90;;;;;;5013252;28;20042;-58
2023/08/23 00:06:15;;;;;;;7.53;2.42;;;18.80;99.90;;;;;;5012898;28;20524;-57
2023/08/23 00:08:42;;;;;;;10.90;2.35;;;18.80;99.90;;;;;;5013176;28;20068;-59
2023/08/23 00:11:08;;;;;;;4.63;2.17;;;18.80;99.90;;;;;;5014933;28;20080;-56
2023/08/23 00:13:35;;;;;;;6.00;2.28;;;18.70;99.90;;;;;;5017134;28;20042;-59
2023/08/23 00:16:02;;;;;;;5.40;2.22;;;18.80;99.90;;;;;;5016997;28;20038;-59
2023/08/23 00:18:29;;;;;;;7.38;2.50;;;18.80;99.90;;;;;;5016167;28;20401;-59
2023/08/23 00:20:55;;;;;;;8.82;2.45;;;18.70;99.90;;;;;;5016778;28;20069;-59
2023/08/23 00:23:22;;;;;;;4.95;2.05;;;18.70;99.90;;;;;;5016723;28;20038;-56
2023/08/23 00:25:49;;;;;;;5.82;2.60;;;18.70;99.90;;;;;;5016729;28;20457;-56
2023/08/23 00:28:19;;;;;;;4.80;2.08;;;18.60;99.90;;;;;;5016698;28;20034;-56
2023/08/23 00:30:46;;;;;;;8.27;2.60;;;18.60;99.90;;;;;;5015068;28;20473;-59
2023/08/23 00:33:13;;;;;;;9.88;2.90;;;18.50;99.90;;;;;;5031469;28;20053;-58
2023/08/23 00:35:40;;;;;;;5.65;2.50;;;18.50;99.90;;;;;;5016556;28;20481;-54
2023/08/23 00:38:07;;;;;;;9.45;2.60;;;18.50;99.90;;;;;;5016042;28;20061;-59
2023/08/23 00:40:33;;;;;;;9.45;3.15;;;18.40;99.90;;;;;;5015287;28;20358;-56
2023/08/23 00:43:00;;;;;;;9.07;3.17;;;18.40;99.90;;;;;;5016092;28;20120;-56
2023/08/23 00:45:27;;;;;;;6.55;3.03;;;18.40;99.90;;;;;;5016260;28;20042;-57
2023/08/23 00:47:54;;;;;;;5.75;2.90;;;18.40;99.90;;;;;;5014765;28;20054;-58
2023/08/23 00:50:21;;;;;;;7.95;3.40;;;18.30;99.90;;;;;;5015993;28;20054;-56
2023/08/23 00:52:47;;;;;;;9.68;3.17;;;18.20;99.90;;;;;;5015052;28;20042;-56
2023/08/23 00:55:19;;;;;;;8.65;2.80;;;18.20;99.90;;;;;;5015141;28;20133;-57
2023/08/23 00:57:46;;;;;;;6.85;2.65;;;18.20;99.90;;;;;;5030930;28;20046;-55
2023/08/23 01:00:13;;;;;;;7.00;2.80;;;18.10;99.90;;;;;;5014645;28;20050;-56
2023/08/23 01:02:40;;;;;;;8.02;2.53;;;18.10;99.90;;;;;;5016092;28;20492;-57
2023/08/23 01:05:07;;;;;;;7.32;2.13;;;18.10;99.90;;;;;;5014885;28;20053;-55
2023/08/23 01:07:35;;;;;;;5.28;2.20;;;18.10;99.90;;;;;;5015892;28;20107;-58
2023/08/23 01:10:02;;;;;;;8.35;2.45;;;18.00;99.90;;;;;;5030841;28;20042;-58
2023/08/23 01:12:29;;;;;;;5.63;2.13;;;18.00;99.90;;;;;;5014325;28;20508;-56
2023/08/23 01:14:56;;;;;;;7.35;2.55;;;17.90;99.90;;;;;;4997972;28;20125;-59
2023/08/23 01:17:23;;;;;;;6.15;2.13;;;17.90;99.90;;;;;;5016018;28;20129;-56
2023/08/23 01:19:50;;;;;;;5.53;2.05;;;17.90;99.90;;;;;;5015625;28;20058;-58
2023/08/23 01:22:17;;;;;;;7.97;2.03;;;17.90;99.90;;;;;;5013429;28;20050;-58
2023/08/23 01:24:45;;;;;;;5.57;2.08;;;17.80;99.90;;;;;;5014241;28;20046;-55
2023/08/23 01:27:12;;;;;;;6.57;2.17;;;17.80;99.90;;;;;;5014321;28;20045;-58
2023/08/23 01:29:38;;;;;;;6.55;2.08;;;17.80;99.90;;;;;;5030411;28;20042;-55
2023/08/23 01:32:05;;;;;;;5.50;2.08;;;17.80;99.90;;;;;;5015654;28;20057;-56
2023/08/23 01:34:32;;;;;;;8.88;2.80;;;17.80;99.90;;;;;;5014268;28;20069;-58
2023/08/23 01:36:59;;;;;;;4.95;2.20;;;17.70;99.90;;;;;;5015322;28;20034;-54
2023/08/23 01:39:25;;;;;;;7.90;2.30;;;17.70;99.90;;;;;;5013975;28;20048;-58
2023/08/23 01:41:52;;;;;;;7.80;2.15;;;17.70;99.90;;;;;;5015333;28;20038;-57
2023/08/23 01:44:20;;;;;;;7.15;2.40;;;17.70;99.90;;;;;;5013588;28;20080;-57
2023/08/23 01:46:47;;;;;;;8.55;2.50;;;17.60;99.90;;;;;;5014907;28;20038;-55
2023/08/23 01:49:14;;;;;;;6.18;2.47;;;17.60;99.90;;;;;;5013637;28;20069;-55
2023/08/23 01:51:40;;;;;;;8.25;2.30;;;17.50;99.90;;;;;;5015458;28;20052;-58
2023/08/23 01:54:07;;;;;;;9.38;2.80;;;17.50;99.90;;;;;;5014760;28;20048;-56
2023/08/23 01:56:34;;;;;;;8.63;2.40;;;17.50;99.90;;;;;;5014559;28;20050;-58
2023/08/23 01:59:01;;;;;;;6.60;2.63;;;17.50;99.90;;;;;;5013809;28;20413;-60
2023/08/23 02:01:29;;;;;;;7.75;2.75;;;17.50;99.90;;;;;;5013311;28;20065;-59
2023/08/23 02:03:55;;;;;;;8.52;3.00;;;17.40;99.90;;;;;;5014467;28;20050;-55
2023/08/23 02:06:22;;;;;;;8.35;3.25;;;17.40;99.90;;;;;;5013474;28;20152;-57
2023/08/23 02:08:50;;;;;;;8.88;3.72;;;17.40;99.90;;;;;;5014399;28;20338;-54
2023/08/23 02:11:17;;;;;;;8.70;3.63;;;17.30;99.90;;;;;;5014828;28;20125;-52
2023/08/23 02:13:44;;;;;;;10.10;3.40;;;17.30;99.90;;;;;;5014108;28;20516;-52
2023/08/23 02:16:11;;;;;;;9.65;3.78;;;17.20;99.90;;;;;;5013210;28;20041;-56
2023/08/23 02:18:38;;;;;;;10.32;4.30;;;17.10;99.90;;;;;;5012918;28;20455;-53
2023/08/23 02:21:05;;;;;;;11.02;4.35;;;17.10;99.90;;;;;;5014327;28;20041;-51
2023/08/23 02:23:32;;;;;;;8.30;4.30;;;17.10;99.90;;;;;;5013433;28;20113;-52
2023/08/23 02:25:59;;;;;;;9.77;4.28;;;17.00;99.90;;;;;;5013198;28;20042;-50
2023/08/23 02:28:25;;;;;;;12.73;4.85;;;17.00;99.90;;;;;;5013993;28;20089;-53
2023/08/23 02:30:52;;;;;;;10.45;4.63;;;16.90;99.90;;;;;;5014324;28;20057;-50
2023/08/23 02:33:19;;;;;;;12.52;4.20;;;16.80;99.90;;;;;;5012285;28;20140;-51
2023/08/23 02:35:47;;;;;;;10.70;3.60;;;16.80;99.90;;;;;;5014280;28;20038;-51
2023/08/23 02:38:14;;;;;;;9.13;3.65;;;16.80;99.90;;;;;;5014194;28;20109;-57
2023/08/23 02:40:41;;;;;;;7.85;3.63;;;16.80;99.90;;;;;;5014198;28;20073;-53
2023/08/23 02:43:08;;;;;;;8.68;3.75;;;16.80;99.90;;;;;;5013919;28;20048;-51
2023/08/23 02:45:35;;;;;;;8.18;3.30;;;16.80;99.90;;;;;;5014218;28;20069;-56
2023/08/23 02:48:02;;;;;;;8.52;3.58;;;16.80;99.90;;;;;;5013817;28;20042;-52
2023/08/23 02:50:29;;;;;;;8.00;3.28;;;16.80;99.90;;;;;;5013544;28;20057;-57
2023/08/23 02:52:56;;;;;;;6.78;2.85;;;16.80;99.90;;;;;;5012382;28;20038;-58
2023/08/23 02:55:23;;;;;;;7.82;2.72;;;16.70;99.90;;;;;;5013871;28;20069;-56
2023/08/23 02:57:50;;;;;;;7.85;3.00;;;16.70;99.90;;;;;;5012181;28;20034;-55
2023/08/23 03:00:16;;;;;;;9.55;2.70;;;16.70;99.90;;;;;;5012204;28;20053;-57
2023/08/23 03:02:43;;;;;;;8.77;3.00;;;16.70;99.90;;;;;;5028772;28;20060;-55
2023/08/23 03:05:10;;;;;;;4.68;2.45;;;16.70;99.90;;;;;;5012313;28;20397;-57
2023/08/23 03:07:37;;;;;;;7.88;2.75;;;16.70;99.90;;;;;;5013944;28;20042;-59
2023/08/23 03:10:04;;;;;;;9.02;2.70;;;16.70;99.90;;;;;;5013932;28;20042;-53
2023/08/23 03:12:30;;;;;;;7.80;2.80;;;16.70;99.90;;;;;;5012508;28;20038;-59
2023/08/23 03:14:57;;;;;;;8.48;3.13;;;16.80;99.90;;;;;;5013486;28;20042;-57
2023/08/23 03:17:24;;;;;;;8.25;3.00;;;16.80;99.90;;;;;;5013353;28;20108;-55
2023/08/23 03:19:51;;;;;;;7.85;3.42;;;16.80;99.90;;;;;;5012205;28;20394;-55
2023/08/23 03:22:18;;;;;;;8.25;3.15;;;16.80;99.90;;;;;;5012036;28;20046;-55
2023/08/23 03:24:45;;;;;;;8.43;2.85;;;16.90;99.90;;;;;;5012013;28;20064;-59
2023/08/23 03:27:12;;;;;;;5.28;2.40;;;16.90;99.90;;;;;;5012013;28;20408;-59
2023/08/23 03:29:39;;;;;;;8.93;2.72;;;16.90;99.90;;;;;;5028145;28;20138;-57
2023/08/23 03:32:06;;;;;;;7.13;3.10;;;16.90;99.90;;;;;;5011889;28;20477;-57
2023/08/23 03:34:33;;;;;;;8.30;3.15;;;16.90;99.90;;;;;;5013029;28;20477;-58
2023/08/23 03:37:00;;;;;;;8.93;3.45;;;16.90;99.90;;;;;;5012246;28;20477;-53
2023/08/23 03:39:27;;;;;;;8.48;3.20;;;16.90;99.90;;;;;;5011644;28;20052;-57
2023/08/23 03:41:53;;;;;;;10.35;3.58;;;16.90;99.90;;;;;;5012970;28;20069;-55
2023/08/23 03:44:20;;;;;;;5.05;2.88;;;16.90;99.90;;;;;;4995446;28;20374;-56
2023/08/23 03:46:47;;;;;;;8.18;3.17;;;16.90;99.90;;;;;;5014698;28;20073;-57
2023/08/23 03:49:14;;;;;;;6.53;3.10;;;16.90;99.90;;;;;;5015558;28;20084;-59
2023/08/23 03:51:42;;;;;;;11.93;3.40;;;16.90;99.90;;;;;;5000015;28;20137;-58
2023/08/23 03:54:09;;;;;;;5.57;2.60;;;16.90;99.90;;;;;;5015797;28;20050;-55
2023/08/23 03:56:35;;;;;;;6.82;2.78;;;16.90;99.90;;;;;;5032519;28;20412;-58
2023/08/23 03:59:02;;;;;;;5.65;2.95;;;16.90;99.90;;;;;;5015784;28;20044;-52
2023/08/23 04:01:29;;;;;;;6.72;2.75;;;17.00;99.90;;;;;;5017414;28;20042;-54
2023/08/23 04:03:56;;;;;;;8.85;2.80;;;17.00;99.90;;;;;;5017059;28;20053;-55
2023/08/23 04:06:23;;;;;;;8.27;3.25;;;17.00;99.90;;;;;;5015806;28;20050;-59
2023/08/23 04:08:49;;;;;;;7.18;3.00;;;16.90;99.90;;;;;;5017359;28;20052;-58
2023/08/23 04:11:16;;;;;;;5.03;2.60;;;17.00;99.90;;;;;;5031853;28;20057;-59
2023/08/23 04:13:43;;;;;;;10.13;3.20;;;17.00;99.90;;;;;;5015289;28;20038;-56
2023/08/23 04:16:10;;;;;;;7.28;3.03;;;17.00;99.90;;;;;;5015575;28;20042;-58
2023/08/23 04:18:37;;;;;;;7.45;2.50;;;17.00;99.90;;;;;;5015739;28;20038;-56
2023/08/23 04:21:03;;;;;;;8.68;2.85;;;17.00;99.90;;;;;;5017083;28;20042;-55
2023/08/23 04:23:30;;;;;;;6.32;2.78;;;17.10;99.90;;;;;;5031759;28;20066;-54
2023/08/23 04:25:58;;;;;;;9.90;3.30;;;17.10;99.90;;;;;;5015473;28;20472;-57
2023/08/23 04:28:24;;;;;;;6.70;2.88;;;17.10;99.90;;;;;;5016415;28;20038;-57
2023/08/23 04:30:51;;;;;;;7.07;2.67;;;17.10;99.90;;;;;;5031523;28;20050;-57
2023/08/23 04:33:18;;;;;;;6.57;2.85;;;17.10;99.90;;;;;;5015488;28;20477;-55
2023/08/23 04:35:46;;;;;;;7.00;2.58;;;17.10;99.90;;;;;;5015416;28;20057;-56
2023/08/23 04:38:13;;;;;;;10.52;3.20;;;17.00;99.90;;;;;;5014804;28;20049;-53
2023/08/23 04:40:40;;;;;;;7.65;3.10;;;17.00;99.90;;;;;;5016411;28;20052;-58
2023/08/23 04:43:08;;;;;;;12.55;3.20;;;16.90;99.90;;;;;;5031144;28;20050;-57
2023/08/23 04:45:36;;;;;;;8.40;3.22;;;16.90;99.90;;;;;;5014583;28;20041;-58
2023/08/23 04:48:02;;;;;;;10.02;3.03;;;16.90;99.90;;;;;;5031022;28;20038;-56
2023/08/23 04:50:30;;;;;;;8.90;3.08;;;16.90;99.90;;;;;;5030840;28;20042;-55
2023/08/23 04:52:57;;;;;;;9.88;2.90;;;17.00;99.90;;;;;;5014665;28;20042;-55
2023/08/23 04:55:24;;;;;;;8.10;3.15;;;17.00;99.90;;;;;;5014300;28;20049;-55
2023/08/23 04:57:51;;;;;;;7.50;2.83;;;17.00;99.90;;;;;;5014211;28;20145;-54
2023/08/23 05:00:18;;;;;;;7.85;3.67;;;17.00;99.90;;;;;;5016013;28;20072;-58
2023/08/23 05:02:45;;;;;;;8.43;2.65;;;17.00;99.90;;;;;;5014698;28;20359;-53
2023/08/23 05:05:12;;;;;;;9.70;3.22;;;17.00;99.90;;;;;;5014748;28;20042;-57
2023/08/23 05:07:39;;;;;;;11.95;3.35;;;17.00;99.90;;;;;;5014913;28;20125;-58
2023/08/23 05:10:06;;;;;;;5.85;3.00;;;17.00;99.90;;;;;;5030889;28;20050;-52
2023/08/23 05:12:33;;;;;;;7.00;2.88;;;16.90;99.90;;;;;;5014285;28;20052;-57
2023/08/23 05:15:00;;;;;;;8.73;3.08;;;16.90;99.90;;;;;;5015701;28;20042;-56
2023/08/23 05:17:27;;;;;;;8.15;3.60;;;16.90;99.90;;;;;;5014547;28;20073;-56
2023/08/23 05:19:54;;;;;;;7.10;3.35;;;16.90;99.90;;;;;;5014450;28;20045;-53
2023/08/23 05:22:21;;;;;;;5.30;3.00;;;16.80;99.90;;;;;;5030527;28;20141;-54
2023/08/23 05:24:47;;;;;;;8.18;2.90;;;16.80;99.90;;;;;;5015287;28;20042;-54
2023/08/23 05:27:16;;;;;;;4.80;2.67;;;16.70;99.90;;;;;;5013844;28;20065;-56
2023/08/23 05:29:44;;;;;;;4.95;2.55;;;16.70;99.90;;;;;;5015257;28;20049;-53
2023/08/23 05:32:11;;;;;;;6.50;3.10;;;16.70;99.90;;;;;;5013905;28;20056;-56
2023/08/23 05:34:38;;;;;;;8.60;3.70;;;16.70;99.90;;;;;;5014140;28;20049;-53
2023/08/23 05:37:05;;;;;;;10.25;3.45;;;16.70;99.90;;;;;;5030812;28;20065;-51
2023/08/23 05:39:33;;;;;;;8.40;3.28;;;16.60;99.90;;;;;;5013598;28;20571;-55
2023/08/23 05:42:00;;;;;;;9.57;3.42;;;16.60;99.90;;;;;;5015517;28;20045;-53
2023/08/23 05:44:27;;;;;;;8.35;3.38;;;16.60;99.90;;;;;;5013877;28;20049;-57
2023/08/23 05:46:54;;;;;;;9.50;3.50;;;16.60;99.90;;;;;;5014080;28;20456;-55
2023/08/23 05:49:21;;;;;;;8.05;3.10;;;16.60;99.90;;;;;;5029744;28;20138;-54
2023/08/23 05:51:50;;;;;;;8.75;3.60;;;16.70;99.90;;;;;;5013652;28;20115;-54
2023/08/23 05:54:16;;;;;;;7.43;3.50;;;16.70;99.90;;;;;;5014740;28;20049;-57
2023/08/23 05:56:43;;;;;;;11.48;4.32;;;16.70;99.90;;;;;;5014582;28;20034;-55
2023/08/23 05:59:10;;;;;;;11.38;3.72;;;16.80;99.90;;;;;;5014612;28;20038;-57
2023/08/23 06:01:38;;;;;;;7.88;3.47;;;16.90;99.90;;;;;;5014989;28;20073;-57
2023/08/23 06:04:05;;;;;;;8.23;3.88;;;17.00;99.90;;;;;;5014937;28;20057;-58
2023/08/23 06:06:33;;;;;;;12.48;3.35;;;17.10;99.90;;;;;;5015074;28;20062;-57
2023/08/23 06:08:59;;;;;;;8.35;3.50;;;17.10;99.90;;;;;;5013850;28;20046;-59
2023/08/23 06:11:26;;;;;;;14.02;3.83;;;17.20;99.90;;;;;;5014732;28;20053;-53
2023/08/23 06:13:53;;;;;;;11.75;3.95;;;17.30;99.90;;;;;;5014311;28;20063;-55
2023/08/23 06:16:20;;;;;;;9.25;3.70;;;17.40;99.90;;;;;;5014482;28;20046;-56
2023/08/23 06:18:46;;;;;;;8.18;4.00;;;17.40;99.90;;;;;;5014311;28;20072;-58
2023/08/23 06:21:13;;;;;;;8.18;3.40;;;17.50;99.90;;;;;;5014291;28;20038;-52
2023/08/23 06:23:43;;;;;;;13.98;4.15;;;17.60;99.90;;;;;;5014525;28;20466;-55
2023/08/23 06:26:11;;;;;;;9.93;3.92;;;17.60;99.90;;;;;;5013197;28;20058;-57
2023/08/23 06:28:37;;;;;;;9.93;3.80;;;17.70;99.90;;;;;;5014371;28;20535;-54
2023/08/23 06:31:04;;;;;;;12.85;4.25;;;17.70;99.90;;;;;;5014596;28;20129;-59
2023/08/23 06:33:31;;;;;;;7.95;4.15;;;17.80;99.90;;;;;;5014084;28;20045;-57
2023/08/23 06:35:58;;;;;;;7.97;3.65;;;17.80;99.90;;;;;;5013909;28;20053;-56
2023/08/23 06:38:25;;;;;;;7.07;3.72;;;17.90;99.90;;;;;;5013972;28;20068;-56
2023/08/23 06:40:51;;;;;;;10.75;4.10;;;17.90;99.90;;;;;;5014010;28;20048;-58
2023/08/23 06:43:19;;;;;;;9.23;3.53;;;17.90;99.90;;;;;;5014015;28;20044;-58
2023/08/23 06:45:46;;;;;;;10.75;3.30;;;18.00;99.90;;;;;;5013878;28;20077;-56
2023/08/23 06:48:12;;;;;;;6.75;3.17;;;18.00;99.90;;;;;;5013863;28;20042;-58
2023/08/23 06:50:39;;;;;;;6.82;2.83;;;18.10;99.90;;;;;;5014080;28;20048;-55
2023/08/23 06:53:06;;;;;;;10.57;3.50;;;18.10;99.90;;;;;;5014078;28;20042;-55
2023/08/23 06:55:33;;;;;;;9.70;3.75;;;18.20;99.90;;;;;;5013643;28;20057;-57
2023/08/23 06:58:00;;;;;;;7.10;2.90;;;18.20;99.90;;;;;;5012905;28;20046;-56
2023/08/23 07:00:26;;;;;;;7.07;2.78;;;18.20;99.90;;;;;;5013641;28;20049;-55
2023/08/23 07:02:53;;;;;;;7.53;3.35;;;18.30;99.90;;;;;;5020113;28;20113;-53
2023/08/23 07:05:20;;;;;;;12.18;3.00;;;18.30;99.90;;;;;;5032995;28;20073;-57
2023/08/23 07:07:47;;;;;;;9.02;3.00;;;18.30;99.90;;;;;;5033043;28;20403;-59
2023/08/23 07:10:14;;;;;;;6.47;3.20;;;18.40;99.90;;;;;;5032140;28;20045;-54
2023/08/23 07:12:53;;;;;;;10.13;3.15;;;18.30;99.90;;;;;;5033001;28;20064;-54
2023/08/23 07:15:20;;;;;;;10.43;3.42;;;18.30;99.90;;;;;;5032852;28;20046;-51
2023/08/23 07:17:47;;;;;;;9.40;3.42;;;18.40;99.90;;;;;;5032977;28;20037;-55
2023/08/23 07:20:15;;;;;;;7.80;3.40;;;18.50;99.90;;;;;;5031743;28;20042;-58
2023/08/23 07:22:42;;;;;;;8.05;3.03;;;18.50;99.90;;;;;;5032961;28;20051;-58
2023/08/23 07:25:09;;;;;;;8.40;3.53;;;18.60;99.90;;;;;;5017423;28;20462;-57
2023/08/23 07:27:36;;;;;;;7.68;3.05;;;18.60;99.90;;;;;;5032769;28;20049;-60
2023/08/23 07:30:03;;;;;;;6.47;2.95;;;18.60;99.90;;;;;;5032868;28;20120;-56
2023/08/23 07:32:30;;;;;;;11.40;3.60;;;18.60;99.90;;;;;;5032745;28;20084;-56
2023/08/23 07:34:58;;;;;;;7.10;3.33;;;18.60;99.90;;;;;;5032780;28;20041;-59
2023/08/23 07:37:25;;;;;;;8.50;3.15;;;18.50;99.90;;;;;;5032496;28;20408;-56
2023/08/23 07:39:52;;;;;;;6.82;2.90;;;18.50;99.90;;;;;;5031227;28;20040;-57
2023/08/23 07:42:18;;;;;;;5.57;2.85;;;18.50;99.90;;;;;;5032428;28;20042;-56
2023/08/23 07:44:45;;;;;;;8.68;3.20;;;18.50;99.90;;;;;;5032505;28;20052;-54
2023/08/23 07:47:12;;;;;;;7.90;3.10;;;18.50;99.90;;;;;;5031372;28;20488;-56
2023/08/23 07:49:39;;;;;;;7.85;2.90;;;18.50;99.90;;;;;;5034062;28;20057;-52
2023/08/23 07:52:06;;;;;;;8.40;3.00;;;18.50;99.90;;;;;;5032422;28;20069;-53
2023/08/23 07:54:32;;;;;;;9.15;3.30;;;18.60;99.90;;;;;;5032437;28;20049;-55
2023/08/23 07:56:59;;;;;;;7.50;2.70;;;18.60;99.90;;;;;;5032697;28;20044;-55
2023/08/23 07:59:26;;;;;;;7.97;2.70;;;18.70;99.90;;;;;;5032322;28;20064;-58
2023/08/23 08:01:53;;;;;;;7.53;3.05;;;18.70;99.90;;;;;;5031073;28;20030;-58
2023/08/23 08:04:19;;;;;;;9.63;3.30;;;18.80;99.90;;;;;;5032856;28;20436;-57
2023/08/23 08:06:46;;;;;;;8.23;2.70;;;18.80;99.90;;;;;;5032380;28;20046;-54
2023/08/23 08:09:13;;;;;;;6.72;2.83;;;18.80;99.90;;;;;;5032245;28;20049;-55
2023/08/23 08:11:40;;;;;;;10.38;2.80;;;18.90;99.90;;;;;;5032060;28;20484;-51
2023/08/23 08:14:07;;;;;;;6.55;2.17;;;18.80;99.90;;;;;;5032576;28;20053;-55
2023/08/23 08:16:33;;;;;;;6.68;2.05;;;18.90;99.90;;;;;;5026972;28;20041;-54
2023/08/23 08:19:00;;;;;;;8.40;2.15;;;19.00;99.90;;;;;;5031089;28;20049;-58
2023/08/23 08:21:27;;;;;;;8.95;2.33;;;19.00;99.90;;;;;;5031627;28;20496;-57
2023/08/23 08:23:55;;;;;;;62.63;7.55;;;19.00;99.90;;;;;;5032014;28;20069;-59
2023/08/23 08:26:22;;;;;;;8.75;2.47;;;19.10;99.90;;;;;;5032138;28;20108;-57
2023/08/23 08:28:49;;;;;;;6.55;2.00;;;19.10;99.90;;;;;;5031848;28;20508;-58
2023/08/23 08:31:15;;;;;;;7.32;2.10;;;19.10;99.90;;;;;;5029286;28;20041;-54
2023/08/23 08:33:42;;;;;;;6.88;2.20;;;19.10;99.90;;;;;;5035180;28;20053;-54
2023/08/23 08:36:09;;;;;;;6.65;1.95;;;19.20;99.90;;;;;;5035065;28;20506;-57
2023/08/23 08:38:37;;;;;;;6.93;2.28;;;19.20;99.90;;;;;;5035433;28;20048;-58
2023/08/23 08:41:04;;;;;;;4.85;2.00;;;19.30;99.90;;;;;;5035067;28;20422;-55
2023/08/23 08:43:31;;;;;;;6.53;2.20;;;19.30;99.90;;;;;;5035392;28;20034;-54
2023/08/23 08:45:58;;;;;;;10.10;2.58;;;19.40;99.90;;;;;;5035180;28;20058;-56
2023/08/23 08:48:25;;;;;;;7.20;2.00;;;19.50;99.90;;;;;;5034896;28;20087;-55
2023/08/23 08:50:51;;;;;;;6.45;1.90;;;19.50;99.90;;;;;;5034969;28;20050;-55
2023/08/23 08:53:18;;;;;;;6.88;1.70;;;19.60;99.90;;;;;;5034598;28;20052;-55
2023/08/23 08:55:45;;;;;;;4.82;1.52;;;19.60;99.90;;;;;;5034916;28;20045;-57
2023/08/23 08:58:15;;;;;;;5.53;1.77;;;19.70;99.90;;;;;;5034856;28;20042;-56
2023/08/23 09:00:43;;;;;;;4.32;1.80;;;19.70;99.90;;;;;;5033586;28;20044;-55
2023/08/23 09:03:10;;;;;;;4.28;1.40;;;19.90;99.90;;;;;;5034192;28;20052;-57
2023/08/23 09:05:37;;;;;;;5.40;1.60;;;19.90;99.90;;;;;;5034994;28;20060;-52
2023/08/23 09:08:03;;;;;;;5.78;1.58;;;19.90;99.20;;;;;;5035019;28;20059;-51
2023/08/23 09:10:31;;;;;;;5.13;1.60;;;20.00;99.90;;;;;;5034821;28;20073;-53
2023/08/23 09:12:58;;;;;;;3.88;1.58;;;20.10;99.90;;;;;;5034699;28;20038;-53
2023/08/23 09:15:25;;;;;;;5.28;1.75;;;20.20;99.90;;;;;;5034716;28;20484;-51
2023/08/23 09:17:51;;;;;;;6.30;2.00;;;20.30;99.90;;;;;;5034392;28;20089;-57
2023/08/23 09:20:18;;;;;;;7.15;2.20;;;20.40;99.90;;;;;;5034542;28;20408;-55
2023/08/23 09:22:45;;;;;;;6.85;1.95;;;20.40;99.70;;;;;;5034468;28;20107;-49
2023/08/23 09:25:12;;;;;;;5.57;1.90;;;20.40;99.90;;;;;;5034396;28;20049;-53
2023/08/23 09:27:38;;;;;;;4.47;1.70;;;20.40;99.40;;;;;;5028008;28;20497;-57
2023/08/23 09:30:05;;;;;;;6.35;1.85;;;20.50;98.70;;;;;;5027817;28;20124;-55
2023/08/23 09:32:32;;;;;;;7.00;1.73;;;20.60;98.80;;;;;;5028007;28;20475;-53
2023/08/23 09:34:59;;;;;;;4.22;1.75;;;20.60;98.90;;;;;;5034258;28;20092;-58
2023/08/23 09:37:26;;;;;;;8.05;2.30;;;20.60;98.40;;;;;;5034215;28;20041;-56
2023/08/23 09:39:53;;;;;;;5.60;1.83;;;20.70;98.60;;;;;;5034193;28;20057;-58
2023/08/23 09:42:19;;;;;;;8.38;2.10;;;20.70;98.40;;;;;;5033794;28;20048;-58
2023/08/23 09:44:46;;;;;;;6.05;2.00;;;20.70;98.50;;;;;;5033095;28;20124;-56
2023/08/23 09:47:14;;;;;;;9.95;2.80;;;20.70;98.30;;;;;;5033987;28;20044;-57
2023/08/23 09:49:41;;;;;;;17.17;4.65;;;20.80;98.40;;;;;;5033595;28;20065;-58
2023/08/23 09:52:08;;;;;;;586.72;59.92;;;20.90;98.60;;;;;;5033780;28;20047;-58
2023/08/23 09:54:34;;;;;;;48.30;10.02;;;21.00;98.10;;;;;;5033829;28;20052;-56
2023/08/23 09:57:16;;;;;;;17.38;4.88;;;21.00;98.20;;;;;;5032436;28;20053;-56
2023/08/23 09:59:43;;;;;;;21.02;6.10;;;21.00;98.40;;;;;;5033735;28;20464;-57
2023/08/23 10:02:10;;;;;;;6.45;2.40;;;21.00;98.30;;;;;;5033609;28;20042;-57
2023/08/23 10:04:36;;;;;;;10.52;3.03;;;21.10;98.30;;;;;;5033652;28;20416;-54
2023/08/23 10:07:03;;;;;;;17.38;4.82;;;21.20;97.30;;;;;;5033862;28;20038;-57
2023/08/23 10:09:30;;;;;;;11.88;3.80;;;21.20;97.20;;;;;;5033923;28;20124;-54
2023/08/23 10:11:57;;;;;;;3.90;1.70;;;21.20;97.40;;;;;;5033676;28;20045;-55
2023/08/23 10:14:24;;;;;;;13.52;4.22;;;21.20;96.70;;;;;;5032419;28;20523;-56
2023/08/23 10:16:51;;;;;;;23.38;7.57;;;21.20;96.40;;;;;;5033247;28;20090;-58
2023/08/23 10:19:18;;;;;;;19.75;5.80;;;21.30;96.70;;;;;;5033191;28;20071;-58
2023/08/23 10:21:44;;;;;;;10.15;2.95;;;21.30;96.70;;;;;;5033262;28;20045;-57
2023/08/23 10:24:11;;;;;;;17.40;5.00;;;21.30;96.40;;;;;;5033256;28;20034;-57
2023/08/23 10:26:38;;;;;;;17.33;4.72;;;21.40;96.60;;;;;;5032864;28;20045;-58
2023/08/23 10:29:05;;;;;;;8.43;3.10;;;21.50;96.70;;;;;;5026845;28;20045;-55
2023/08/23 10:31:32;;;;;;;27.02;8.27;;;21.60;96.70;;;;;;5032246;28;20049;-55
2023/08/23 10:33:58;;;;;;;7.88;3.55;;;21.70;95.90;;;;;;5033232;28;20045;-55
2023/08/23 10:36:25;;;;;;;8.15;2.20;;;21.70;95.00;;;;;;5031574;28;20053;-56
2023/08/23 10:38:52;;;;;;;775.53;98.55;;;21.70;94.90;;;;;;5032568;28;20116;-57
2023/08/23 10:41:19;;;;;;;8.50;2.78;;;21.80;95.10;;;;;;5033061;28;20404;-54
2023/08/23 10:43:47;;;;;;;5.93;1.67;;;21.80;95.10;;;;;;5027174;28;20468;-56
2023/08/23 10:46:14;;;;;;;4.65;1.60;;;21.80;94.40;;;;;;5027107;28;20053;-54
2023/08/23 10:48:41;;;;;;;3.55;1.60;;;21.90;95.00;;;;;;5027035;28;20042;-57
2023/08/23 10:51:07;;;;;;;6.05;1.73;;;21.90;94.70;;;;;;5026937;28;20046;-56
2023/08/23 10:53:34;;;;;;;3.60;1.50;;;21.90;94.60;;;;;;5026816;28;20042;-59
2023/08/23 10:56:02;;;;;;;7.07;1.60;;;21.80;93.60;;;;;;5032631;28;20503;-55
2023/08/23 10:58:29;;;;;;;21.23;2.40;;;21.90;94.10;;;;;;5032817;28;20065;-57
2023/08/23 11:00:55;;;;;;;6.10;1.60;;;21.90;93.80;;;;;;5033306;28;20384;-57
2023/08/23 11:03:22;;;;;;;4.85;1.50;;;21.90;93.90;;;;;;5033206;28;20057;-55
2023/08/23 11:05:49;;;;;;;4.82;1.70;;;21.90;93.00;;;;;;5032876;28;20060;-55
2023/08/23 11:08:16;;;;;;;183.88;17.20;;;21.90;93.70;;;;;;5031940;28;20041;-57
2023/08/23 11:10:43;;;;;;;7.78;3.15;;;22.00;93.40;;;;;;5033002;28;20125;-53
2023/08/23 11:13:10;;;;;;;4.75;1.65;;;22.10;91.90;;;;;;5032635;28;20041;-56
2023/08/23 11:15:36;;;;;;;3.33;1.48;;;22.10;92.20;;;;;;5029350;28;20041;-56
2023/08/23 11:18:03;;;;;;;3.35;1.30;;;22.20;91.90;;;;;;5031770;28;20071;-57
2023/08/23 11:20:30;;;;;;;5.25;1.60;;;22.20;92.70;;;;;;5032366;28;20044;-52
2023/08/23 11:22:57;;;;;;;17.05;2.60;;;22.20;92.80;;;;;;5032863;28;20045;-54
2023/08/23 11:25:23;;;;;;;5.70;1.95;;;22.30;92.70;;;;;;5032986;28;20049;-55
2023/08/23 11:27:50;;;;;;;4.57;1.50;;;22.40;92.60;;;;;;5032709;28;20042;-53
2023/08/23 11:30:17;;;;;;;5.68;1.80;;;22.40;92.20;;;;;;5031565;28;20037;-58
2023/08/23 11:32:44;;;;;;;4.60;1.60;;;22.40;92.00;;;;;;5032638;28;20038;-57
2023/08/23 11:35:12;;;;;;;4.15;1.65;;;22.40;91.50;;;;;;5026989;28;20041;-59
2023/08/23 11:37:38;;;;;;;5.38;1.63;;;22.40;92.00;;;;;;5024038;28;20065;-57
2023/08/23 11:40:10;;;;;;;4.13;1.63;;;22.30;92.00;;;;;;5022006;28;20116;-54
2023/08/23 11:42:38;;;;;;;4.38;1.70;;;22.30;91.10;;;;;;5024028;28;20037;-56
2023/08/23 11:45:05;;;;;;;5.22;1.67;;;22.50;91.40;;;;;;5024289;28;20538;-58
2023/08/23 11:47:32;;;;;;;3.55;1.58;;;22.50;91.10;;;;;;5025846;28;20068;-57
2023/08/23 11:49:59;;;;;;;4.40;1.55;;;22.70;91.30;;;;;;5030929;28;20061;-57
2023/08/23 11:52:25;;;;;;;5.75;1.95;;;22.70;91.10;;;;;;5030181;28;20041;-57
2023/08/23 11:54:52;;;;;;;3.88;1.70;;;22.80;90.40;;;;;;5032384;28;20053;-57
2023/08/23 11:57:19;;;;;;;3.75;1.90;;;22.80;90.70;;;;;;5031442;28;20158;-57
2023/08/23 11:59:46;;;;;;;3.70;1.55;;;22.90;90.60;;;;;;5031094;28;20040;-58
2023/08/23 12:02:13;;;;;;;6.82;1.70;;;22.90;90.50;;;;;;5032292;28;20073;-56
2023/08/23 12:04:40;;;;;;;3.95;1.40;;;22.90;90.40;;;;;;5031837;28;20043;-57
2023/08/23 12:07:07;;;;;;;4.10;1.60;;;22.90;90.40;;;;;;5034403;28;20496;-53
2023/08/23 12:09:33;;;;;;;4.35;1.33;;;22.90;89.40;;;;;;5035882;28;20132;-56
2023/08/23 12:12:02;;;;;;;4.00;1.52;;;23.00;89.50;;;;;;5036408;28;20135;-56
2023/08/23 12:14:29;;;;;;;3.25;1.50;;;22.90;88.60;;;;;;5035640;28;20049;-55
2023/08/23 12:16:55;;;;;;;4.43;1.63;;;22.90;90.10;;;;;;5034781;28;20056;-57
2023/08/23 12:19:22;;;;;;;5.55;1.80;;;22.90;90.30;;;;;;5036413;28;20041;-53
2023/08/23 12:21:57;;;;;;;3.13;1.40;;;23.10;89.00;;;;;;5035388;28;20065;-55
2023/08/23 12:24:24;;;;;;;5.10;1.80;;;23.20;89.70;;;;;;5036065;28;20087;-53
2023/08/23 12:26:51;;;;;;;3.60;1.35;;;23.40;90.20;;;;;;5035177;28;20507;-55
2023/08/23 12:29:18;;;;;;;4.22;1.77;;;23.40;89.50;;;;;;5035923;28;20037;-55
2023/08/23 12:31:45;;;;;;;6.45;1.50;;;23.40;89.80;;;;;;5035216;28;20109;-57
2023/08/23 12:34:11;;;;;;;4.68;1.70;;;23.40;90.10;;;;;;5035848;28;20590;-54
2023/08/23 12:36:38;;;;;;;4.03;1.50;;;23.40;90.50;;;;;;5035746;28;20507;-56
2023/08/23 12:39:05;;;;;;;4.00;1.55;;;23.30;90.30;;;;;;5035322;28;20029;-58
2023/08/23 12:41:32;;;;;;;3.50;1.50;;;23.30;90.20;;;;;;5036192;28;20052;-53
2023/08/23 12:44:00;;;;;;;2.92;1.83;;;23.30;90.20;;;;;;5034832;28;20068;-55